Time;durP1;ratioP1;P1;durP2;ratioP2;P2;SDS_P1;SDS_P2;PMS_P1;PMS_P2;Temp;Humidity;BMP_temperature;BMP_pressure;BME280_temperature;BME280_humidity;BME280_pressure;Samples;Min_cycle;Max_cycle;Signal;HPM_P1;HPM_P2
2022/05/25 00:00:38;;;;;;;5.30;5.00;;;;;;;;;;5070746;28;20111;-74
2022/05/25 00:03:05;;;;;;;5.88;5.47;;;;;;;;;;5073594;28;20119;-73
2022/05/25 00:05:30;;;;;;;6.40;5.10;;;;;;;;;;5068541;28;20047;-72
2022/05/25 00:07:58;;;;;;;6.00;5.50;;;;;;;;;;5065074;28;20040;-73
2022/05/25 00:10:24;;;;;;;6.05;5.45;;;;;;;;;;5076100;28;20161;-73
2022/05/25 00:12:50;;;;;;;6.00;5.60;;;;;;;;;;5071520;28;20582;-72
2022/05/25 00:15:15;;;;;;;5.90;5.30;;;;;;;;;;5071277;28;20704;-72
2022/05/25 00:17:41;;;;;;;5.93;5.45;;;;;;;;;;5078587;28;20436;-72
2022/05/25 00:20:09;;;;;;;5.63;5.22;;;;;;;;;;5077210;28;20032;-72
2022/05/25 00:22:46;;;;;;;5.70;5.20;;;;;;;;;;5075540;28;20546;-73
2022/05/25 00:25:17;;;;;;;5.40;5.00;;;;;;;;;;5065555;28;20052;-72
2022/05/25 00:27:42;;;;;;;5.53;5.03;;;;;;;;;;5075055;28;20028;-73
2022/05/25 00:30:09;;;;;;;5.65;5.15;;;;;;;;;;5082080;28;20027;-72
2022/05/25 00:32:35;;;;;;;5.70;5.20;;;;;;;;;;5078538;28;20111;-73
2022/05/25 00:35:01;;;;;;;5.40;5.00;;;;;;;;;;5069544;28;20032;-73
2022/05/25 00:37:27;;;;;;;5.25;4.85;;;;;;;;;;5080544;28;20029;-73
2022/05/25 00:39:52;;;;;;;6.90;5.18;;;;;;;;;;5075922;28;20043;-73
2022/05/25 00:42:18;;;;;;;10.10;5.45;;;;;;;;;;5067951;28;20039;-73
2022/05/25 00:44:44;;;;;;;5.82;5.32;;;;;;;;;;5067345;28;20444;-72
2022/05/25 00:47:13;;;;;;;5.53;5.10;;;;;;;;;;5079839;28;20039;-73
2022/05/25 00:49:39;;;;;;;;;;;;;;;;;;5077011;28;20027;-73
2022/05/25 00:52:11;;;;;;;5.25;4.95;;;;;;;;;;5076024;28;20002;-73
2022/05/25 00:54:47;;;;;;;5.55;5.05;;;;;;;;;;5080230;28;20093;-73
2022/05/25 00:57:21;;;;;;;5.43;5.03;;;;;;;;;;5061974;28;20024;-72
2022/05/25 01:00:07;;;;;;;5.60;5.22;;;;;;;;;;5072947;28;20032;-73
2022/05/25 01:02:39;;;;;;;5.47;5.18;;;;;;;;;;5060810;28;20044;-72
2022/05/25 01:05:05;;;;;;;5.63;5.25;;;;;;;;;;5078904;28;20044;-72
2022/05/25 01:08:08;;;;;;;5.97;5.50;;;;;;;;;;5077585;28;20059;-73
2022/05/25 01:10:44;;;;;;;7.32;5.60;;;;;;;;;;5064621;28;20028;-72
2022/05/25 01:14:15;;;;;;;6.22;5.60;;;;;;;;;;5071392;28;20127;-72
2022/05/25 01:17:06;;;;;;;6.00;5.47;;;;;;;;;;5005400;28;20038;-72
2022/05/25 01:20:07;;;;;;;6.72;5.40;;;;;;;;;;4991207;28;20046;-72
2022/05/25 01:22:51;;;;;;;5.60;5.20;;;;;;;;;;5004331;28;20554;-73
2022/05/25 01:25:35;;;;;;;5.30;5.00;;;;;;;;;;5000698;28;20116;-72
2022/05/25 01:28:18;;;;;;;5.35;5.00;;;;;;;;;;5003871;28;20046;-72
2022/05/25 01:30:47;;;;;;;5.72;5.32;;;;;;;;;;4998121;28;20069;-72
2022/05/25 01:33:40;;;;;;;5.72;5.10;;;;;;;;;;5004987;28;20084;-72
2022/05/25 01:36:15;;;;;;;5.20;4.90;;;;;;;;;;5003478;28;20052;-72
2022/05/25 01:38:49;;;;;;;5.40;5.10;;;;;;;;;;5006139;28;20037;-72
2022/05/25 01:41:30;;;;;;;5.50;5.10;;;;;;;;;;5009069;28;20104;-71
2022/05/25 01:44:06;;;;;;;6.75;5.22;;;;;;;;;;5003154;28;20080;-71
2022/05/25 01:46:38;;;;;;;5.43;5.13;;;;;;;;;;5018429;28;20084;-71
2022/05/25 01:49:08;;;;;;;7.68;5.18;;;;;;;;;;5077484;28;20029;-72
2022/05/25 01:51:40;;;;;;;6.13;5.60;;;;;;;;;;5072545;28;20487;-73
2022/05/25 01:54:09;;;;;;;5.95;5.30;;;;;;;;;;5068217;28;20491;-72
2022/05/25 01:56:39;;;;;;;5.65;5.25;;;;;;;;;;5074050;28;20495;-72
2022/05/25 01:59:09;;;;;;;7.00;5.72;;;;;;;;;;5076881;28;20032;-72
2022/05/25 02:01:34;;;;;;;5.72;5.22;;;;;;;;;;5081108;28;20024;-72
2022/05/25 02:07:35;;;;;;;7.15;6.53;;;;;;;;;;5074258;28;20028;-72
2022/05/25 02:10:25;;;;;;;5.65;5.00;;;;;;;;;;5007995;28;20548;-72
2022/05/25 02:13:06;;;;;;;5.60;5.10;;;;;;;;;;5007764;28;20125;-72
2022/05/25 02:15:52;;;;;;;5.30;5.00;;;;;;;;;;5007303;28;20053;-72
2022/05/25 02:18:29;;;;;;;5.68;5.28;;;;;;;;;;5007898;28;20499;-72
2022/05/25 02:20:55;;;;;;;5.70;5.20;;;;;;;;;;5006562;28;20049;-72
2022/05/25 02:23:44;;;;;;;5.53;5.10;;;;;;;;;;5012671;28;20046;-72
2022/05/25 02:26:21;;;;;;;5.90;5.50;;;;;;;;;;5009172;28;20149;-72
2022/05/25 02:28:57;;;;;;;5.53;5.03;;;;;;;;;;5009284;28;20084;-72
2022/05/25 02:31:27;;;;;;;8.48;5.50;;;;;;;;;;5017097;28;20029;-72
2022/05/25 02:33:56;;;;;;;5.97;5.50;;;;;;;;;;5008910;28;20537;-72
2022/05/25 02:36:23;;;;;;;7.80;5.55;;;;;;;;;;5008346;28;20061;-72
2022/05/25 02:38:49;;;;;;;6.00;5.40;;;;;;;;;;5010419;28;20093;-72
2022/05/25 02:41:26;;;;;;;8.30;5.40;;;;;;;;;;5009239;28;20057;-72
2022/05/25 02:43:52;;;;;;;6.10;5.60;;;;;;;;;;5018804;28;20125;-72
2022/05/25 02:46:18;;;;;;;5.97;5.43;;;;;;;;;;5064675;28;20135;-73
2022/05/25 02:48:43;;;;;;;6.25;5.75;;;;;;;;;;5072534;28;20036;-74
2022/05/25 02:51:09;;;;;;;6.20;5.60;;;;;;;;;;5073710;28;20036;-74
2022/05/25 02:53:35;;;;;;;6.32;5.75;;;;;;;;;;5069054;28;20047;-71
2022/05/25 02:56:05;;;;;;;6.38;5.78;;;;;;;;;;5066755;28;20029;-72
2022/05/25 02:58:30;;;;;;;6.95;5.57;;;;;;;;;;5069574;28;20041;-72
2022/05/25 03:00:56;;;;;;;6.45;5.95;;;;;;;;;;5082112;28;20043;-72
2022/05/25 03:03:22;;;;;;;6.20;5.60;;;;;;;;;;5072462;28;20039;-72
2022/05/25 03:05:48;;;;;;;6.00;5.50;;;;;;;;;;5072886;28;20054;-72
2022/05/25 03:08:14;;;;;;;6.35;5.85;;;;;;;;;;5069274;28;20113;-72
2022/05/25 03:10:39;;;;;;;8.10;5.93;;;;;;;;;;5078976;28;20078;-72
2022/05/25 03:13:07;;;;;;;6.47;5.75;;;;;;;;;;5077049;28;20542;-72
2022/05/25 03:15:33;;;;;;;6.53;6.10;;;;;;;;;;5069882;28;20036;-72
2022/05/25 03:17:58;;;;;;;6.35;5.85;;;;;;;;;;5068435;28;20036;-73
2022/05/25 03:20:24;;;;;;;6.05;5.65;;;;;;;;;;5074180;28;20049;-72
2022/05/25 03:22:50;;;;;;;8.13;5.80;;;;;;;;;;5077595;28;20495;-72
2022/05/25 03:25:16;;;;;;;6.35;5.78;;;;;;;;;;5067671;28;20040;-71
2022/05/25 03:27:43;;;;;;;6.18;5.65;;;;;;;;;;5063637;28;20040;-72
2022/05/25 03:30:10;;;;;;;6.25;5.80;;;;;;;;;;5080741;28;20035;-72
2022/05/25 03:32:35;;;;;;;6.07;5.53;;;;;;;;;;5078858;28;20036;-72
2022/05/25 03:35:02;;;;;;;6.13;5.68;;;;;;;;;;5074757;28;20438;-72
2022/05/25 03:37:28;;;;;;;6.18;5.70;;;;;;;;;;5071958;28;20036;-72
2022/05/25 03:39:53;;;;;;;6.22;5.65;;;;;;;;;;5069139;28;20090;-73
2022/05/25 03:42:19;;;;;;;6.05;5.57;;;;;;;;;;5075025;28;20047;-71
2022/05/25 03:44:45;;;;;;;5.97;5.57;;;;;;;;;;5078315;28;20097;-71
2022/05/25 03:47:11;;;;;;;8.48;5.68;;;;;;;;;;5076175;28;20071;-73
2022/05/25 03:49:37;;;;;;;6.70;6.13;;;;;;;;;;5078918;28;20032;-72
2022/05/25 03:52:04;;;;;;;6.43;5.90;;;;;;;;;;5073205;28;20090;-73
2022/05/25 03:54:30;;;;;;;7.28;6.05;;;;;;;;;;5070199;28;20036;-73
2022/05/25 03:56:56;;;;;;;6.07;5.57;;;;;;;;;;5067704;28;20507;-73
2022/05/25 03:59:22;;;;;;;6.30;5.75;;;;;;;;;;5067468;28;20038;-73
2022/05/25 04:01:48;;;;;;;6.30;5.82;;;;;;;;;;5072248;28;20233;-72
2022/05/25 04:04:13;;;;;;;6.40;5.80;;;;;;;;;;5068350;28;20043;-72
2022/05/25 04:06:39;;;;;;;6.43;5.50;;;;;;;;;;5068250;28;20507;-71
2022/05/25 04:09:05;;;;;;;6.80;6.20;;;;;;;;;;5067315;28;20059;-72
2022/05/25 04:11:32;;;;;;;6.70;6.10;;;;;;;;;;5075539;28;20124;-71
2022/05/25 04:13:59;;;;;;;6.63;6.07;;;;;;;;;;5069643;28;20032;-72
2022/05/25 04:16:25;;;;;;;6.53;6.00;;;;;;;;;;5068177;28;20040;-71
2022/05/25 04:18:51;;;;;;;6.50;5.88;;;;;;;;;;5068701;28;20089;-72
2022/05/25 04:21:17;;;;;;;7.82;6.00;;;;;;;;;;5068685;28;20115;-72
2022/05/25 04:23:43;;;;;;;6.70;6.15;;;;;;;;;;5063134;28;20043;-72
2022/05/25 04:26:09;;;;;;;6.07;5.55;;;;;;;;;;5067868;28;20044;-71
2022/05/25 04:28:35;;;;;;;6.93;6.18;;;;;;;;;;5070677;28;20045;-72
2022/05/25 04:31:01;;;;;;;6.43;5.93;;;;;;;;;;5062945;28;20036;-72
2022/05/25 04:33:29;;;;;;;6.05;5.57;;;;;;;;;;5072484;28;20028;-72
2022/05/25 04:35:56;;;;;;;8.65;6.13;;;;;;;;;;5066256;28;20086;-71
2022/05/25 04:38:23;;;;;;;8.35;5.90;;;;;;;;;;5066811;28;20334;-72
2022/05/25 04:40:48;;;;;;;6.30;5.68;;;;;;;;;;5061981;28;20039;-72
2022/05/25 04:43:21;;;;;;;9.82;5.70;;;;;;;;;;5068575;28;20419;-72
2022/05/25 04:45:48;;;;;;;6.47;5.57;;;;;;;;;;5065545;28;20033;-72
2022/05/25 04:48:16;;;;;;;7.35;5.70;;;;;;;;;;5066311;28;20032;-73
2022/05/25 04:50:44;;;;;;;6.20;5.38;;;;;;;;;;5066220;28;20470;-73
2022/05/25 04:53:12;;;;;;;6.00;5.60;;;;;;;;;;5065583;28;20040;-72
2022/05/25 04:58:24;;;;;;;6.15;5.70;;;;;;;;;;5072342;28;20028;-73
2022/05/25 05:00:50;;;;;;;6.57;5.97;;;;;;;;;;5071093;28;20032;-71
2022/05/25 05:03:17;;;;;;;5.57;5.25;;;;;;;;;;5067030;28;20055;-72
2022/05/25 05:05:43;;;;;;;6.78;5.65;;;;;;;;;;5063220;28;20115;-73
2022/05/25 05:08:09;;;;;;;5.38;4.97;;;;;;;;;;5076107;28;20034;-72
2022/05/25 05:10:35;;;;;;;5.70;5.30;;;;;;;;;;5069561;28;20036;-71
2022/05/25 05:13:07;;;;;;;5.82;5.20;;;;;;;;;;5069394;28;20036;-73
2022/05/25 05:15:35;;;;;;;11.23;5.65;;;;;;;;;;5069050;28;20162;-74
2022/05/25 05:18:01;;;;;;;6.85;5.93;;;;;;;;;;5079877;28;20043;-73
2022/05/25 05:20:47;;;;;;;5.95;5.55;;;;;;;;;;5061368;28;20044;-72
2022/05/25 05:23:13;;;;;;;5.80;5.35;;;;;;;;;;5070225;28;20223;-72
2022/05/25 05:25:39;;;;;;;6.45;5.50;;;;;;;;;;5072981;28;20448;-73
2022/05/25 05:28:17;;;;;;;6.40;5.90;;;;;;;;;;5071231;28;20115;-72
2022/05/25 05:30:55;;;;;;;5.95;5.50;;;;;;;;;;5070240;28;20032;-72
2022/05/25 05:33:21;;;;;;;5.50;5.10;;;;;;;;;;5071150;28;20093;-73
2022/05/25 05:35:51;;;;;;;5.88;5.20;;;;;;;;;;5078339;28;20112;-72
2022/05/25 05:38:18;;;;;;;5.80;5.40;;;;;;;;;;5069716;28;20510;-72
2022/05/25 05:40:44;;;;;;;5.65;5.25;;;;;;;;;;5071901;28;20040;-73
2022/05/25 05:43:12;;;;;;;6.53;5.50;;;;;;;;;;5075943;28;20102;-73
2022/05/25 05:45:42;;;;;;;6.68;5.40;;;;;;;;;;5078665;28;20032;-73
2022/05/25 05:48:20;;;;;;;5.82;5.35;;;;;;;;;;5071814;28;20040;-72
2022/05/25 05:50:50;;;;;;;5.90;5.35;;;;;;;;;;5075341;28;20070;-73
2022/05/25 05:53:16;;;;;;;5.60;5.30;;;;;;;;;;5073480;28;20043;-73
2022/05/25 05:55:44;;;;;;;5.85;5.30;;;;;;;;;;5067947;28;20136;-72
2022/05/25 05:58:11;;;;;;;6.25;4.93;;;;;;;;;;5069987;28;20071;-73
2022/05/25 06:00:37;;;;;;;5.68;5.28;;;;;;;;;;5076468;28;20043;-74
2022/05/25 06:03:04;;;;;;;6.30;5.68;;;;;;;;;;5071821;28;20558;-73
2022/05/25 06:05:30;;;;;;;5.88;5.40;;;;;;;;;;5070975;28;20032;-73
2022/05/25 06:07:56;;;;;;;6.82;6.07;;;;;;;;;;5073172;28;20046;-73
2022/05/25 06:10:22;;;;;;;6.25;5.75;;;;;;;;;;5076180;28;20029;-73
2022/05/25 06:12:47;;;;;;;5.78;5.25;;;;;;;;;;5074375;28;20503;-73
2022/05/25 06:20:49;;;;;;;5.10;4.70;;;;;;;;;;5081037;28;20039;-72
2022/05/25 06:23:15;;;;;;;5.30;4.90;;;;;;;;;;5082199;28;20403;-72
2022/05/25 06:25:41;;;;;;;5.75;4.75;;;;;;;;;;5062788;28;20039;-72
2022/05/25 06:28:06;;;;;;;5.38;4.97;;;;;;;;;;5067490;28;20116;-72
2022/05/25 06:30:32;;;;;;;5.00;4.60;;;;;;;;;;5074511;28;20510;-72
2022/05/25 06:32:57;;;;;;;4.95;4.50;;;;;;;;;;5082998;28;20086;-72
2022/05/25 06:35:23;;;;;;;4.78;4.40;;;;;;;;;;5080707;28;20036;-72
2022/05/25 06:37:49;;;;;;;5.28;4.78;;;;;;;;;;5077034;28;20044;-71
2022/05/25 06:40:15;;;;;;;4.80;4.28;;;;;;;;;;5070373;28;20032;-71
2022/05/25 06:42:41;;;;;;;4.72;4.40;;;;;;;;;;5065316;28;20108;-72
2022/05/25 06:45:09;;;;;;;4.90;4.50;;;;;;;;;;5078956;28;20161;-72
2022/05/25 06:47:35;;;;;;;6.32;4.70;;;;;;;;;;5071895;28;20028;-73
2022/05/25 06:50:00;;;;;;;6.10;4.97;;;;;;;;;;5069293;28;20548;-73
2022/05/25 06:52:26;;;;;;;5.18;4.88;;;;;;;;;;5079589;28;20415;-72
2022/05/25 06:54:53;;;;;;;6.25;4.80;;;;;;;;;;5068745;28;20040;-72
2022/05/25 06:57:19;;;;;;;5.72;5.20;;;;;;;;;;5066509;28;20041;-73
2022/05/25 06:59:45;;;;;;;5.95;5.43;;;;;;;;;;5074414;28;20043;-72
2022/05/25 07:02:11;;;;;;;7.00;5.40;;;;;;;;;;5068316;28;20032;-72
2022/05/25 07:04:37;;;;;;;5.25;4.80;;;;;;;;;;5077975;28;20071;-72
2022/05/25 07:07:03;;;;;;;5.00;4.70;;;;;;;;;;5069997;28;20361;-72
2022/05/25 07:09:30;;;;;;;7.45;4.90;;;;;;;;;;5081619;28;20081;-72
2022/05/25 07:11:57;;;;;;;6.35;5.05;;;;;;;;;;5078248;28;20424;-71
2022/05/25 07:14:23;;;;;;;5.10;4.80;;;;;;;;;;5078931;28;20032;-71
2022/05/25 07:16:49;;;;;;;4.78;4.38;;;;;;;;;;5089009;22;20570;-62
2022/05/25 07:19:15;;;;;;;5.30;4.90;;;;;;;;;;5073214;28;20088;-61
2022/05/25 07:21:41;;;;;;;5.70;5.20;;;;;;;;;;5083939;28;20041;-63
2022/05/25 07:24:07;;;;;;;6.15;4.93;;;;;;;;;;5068998;28;20033;-64
2022/05/25 07:26:33;;;;;;;5.43;4.80;;;;;;;;;;5058177;28;20452;-64
2022/05/25 07:28:59;;;;;;;5.38;4.72;;;;;;;;;;5072342;28;20131;-63
2022/05/25 07:31:35;;;;;;;5.15;4.72;;;;;;;;;;5083281;28;20118;-64
2022/05/25 07:34:05;;;;;;;5.25;4.80;;;;;;;;;;5060256;28;20036;-64
2022/05/25 07:36:33;;;;;;;4.28;4.07;;;;;;;;;;5055816;28;20033;-64
2022/05/25 07:39:08;;;;;;;4.47;4.07;;;;;;;;;;5081311;28;20074;-63
2022/05/25 07:41:39;;;;;;;4.63;4.32;;;;;;;;;;5080978;28;20495;-64
2022/05/25 07:44:07;;;;;;;5.28;4.80;;;;;;;;;;5083211;28;20043;-64
2022/05/25 07:46:32;;;;;;;5.82;4.50;;;;;;;;;;5079473;28;20039;-61
2022/05/25 07:48:58;;;;;;;5.00;4.60;;;;;;;;;;5070312;28;20037;-61
2022/05/25 07:51:25;;;;;;;4.80;4.40;;;;;;;;;;5076038;28;20028;-61
2022/05/25 07:53:57;;;;;;;4.72;4.35;;;;;;;;;;5076359;28;20410;-64
2022/05/25 07:56:25;;;;;;;4.97;4.57;;;;;;;;;;5076989;28;20036;-61
2022/05/25 07:58:51;;;;;;;6.20;4.18;;;;;;;;;;5061987;28;20325;-62
2022/05/25 08:05:43;;;;;;;4.75;4.35;;;;;;;;;;5062717;28;20037;-61
2022/05/25 08:06:50;;;;;;;4.78;4.38;;;;;;;;;;5074430;28;20028;-62
2022/05/25 08:09:16;;;;;;;4.70;4.40;;;;;;;;;;5054156;28;20418;-62
2022/05/25 08:11:43;;;;;;;4.50;4.20;;;;;;;;;;5071087;28;20032;-62
2022/05/25 08:14:09;;;;;;;4.63;4.03;;;;;;;;;;5082913;28;20122;-62
2022/05/25 08:16:35;;;;;;;4.90;4.35;;;;;;;;;;5076655;28;20109;-62
2022/05/25 08:19:01;;;;;;;4.25;3.90;;;;;;;;;;5063297;28;20044;-62
2022/05/25 08:21:27;;;;;;;4.68;4.30;;;;;;;;;;5072760;28;20035;-62
2022/05/25 08:23:52;;;;;;;4.43;4.03;;;;;;;;;;5071044;28;20112;-62
2022/05/25 08:26:18;;;;;;;4.60;4.30;;;;;;;;;;5061777;28;20046;-62
2022/05/25 08:28:43;;;;;;;7.72;4.60;;;;;;;;;;5059288;28;20036;-62
2022/05/25 08:31:09;;;;;;;5.18;4.78;;;;;;;;;;5076730;28;20050;-62
2022/05/25 08:33:35;;;;;;;4.85;4.55;;;;;;;;;;5074362;28;20032;-62
2022/05/25 08:36:00;;;;;;;4.80;4.50;;;;;;;;;;5076073;28;20651;-62
2022/05/25 08:38:26;;;;;;;4.90;4.50;;;;;;;;;;5082139;28;20036;-62
2022/05/25 08:40:53;;;;;;;5.22;4.20;;;;;;;;;;5087009;28;20040;-62
2022/05/25 08:43:25;;;;;;;4.85;4.43;;;;;;;;;;5071918;28;20114;-63
2022/05/25 08:45:57;;;;;;;4.60;4.30;;;;;;;;;;5070989;28;20368;-62
2022/05/25 08:48:24;;;;;;;4.88;4.35;;;;;;;;;;5084653;28;20102;-62
2022/05/25 08:50:53;;;;;;;4.60;4.20;;;;;;;;;;5081636;28;20497;-62
2022/05/25 08:53:22;;;;;;;4.78;4.15;;;;;;;;;;5067153;28;20081;-62
2022/05/25 08:56:22;;;;;;;4.57;4.20;;;;;;;;;;5079601;28;20042;-62
2022/05/25 08:58:55;;;;;;;4.20;3.90;;;;;;;;;;5029507;28;20098;-62
2022/05/25 09:01:51;;;;;;;4.72;4.35;;;;;;;;;;5082309;28;20529;-62
2022/05/25 09:04:19;;;;;;;4.53;4.32;;;;;;;;;;5066523;28;20483;-62
2022/05/25 09:06:58;;;;;;;5.07;4.68;;;;;;;;;;5079159;28;20127;-62
2022/05/25 09:09:30;;;;;;;5.20;4.70;;;;;;;;;;5069267;28;20028;-62
2022/05/25 09:12:01;;;;;;;5.35;4.90;;;;;;;;;;5067620;28;20032;-62
2022/05/25 09:14:38;;;;;;;4.97;4.57;;;;;;;;;;5075936;28;20036;-62
2022/05/25 09:17:10;;;;;;;5.15;4.65;;;;;;;;;;5076961;28;20084;-62
2022/05/25 09:19:39;;;;;;;4.57;4.18;;;;;;;;;;5076669;28;20044;-62
2022/05/25 09:22:06;;;;;;;;;;;;;;;;;;5078277;28;20036;-62
2022/05/25 09:24:33;;;;;;;4.47;4.25;;;;;;;;;;5067944;28;19912;-62
2022/05/25 09:27:01;;;;;;;4.30;4.10;;;;;;;;;;5061683;28;20037;-63
2022/05/25 09:29:27;;;;;;;4.57;3.72;;;;;;;;;;5081320;28;20613;-62
2022/05/25 09:32:11;;;;;;;4.30;3.90;;;;;;;;;;5080477;28;20028;-62
2022/05/25 09:34:42;;;;;;;4.82;4.43;;;;;;;;;;5077635;28;20040;-62
2022/05/25 09:37:21;;;;;;;4.03;3.83;;;;;;;;;;5066025;28;20036;-62
2022/05/25 09:39:51;;;;;;;4.30;3.90;;;;;;;;;;5059797;28;20036;-62
2022/05/25 09:42:20;;;;;;;5.43;4.30;;;;;;;;;;5080484;28;20158;-62
2022/05/25 09:44:53;;;;;;;4.15;3.95;;;;;;;;;;5077756;28;20078;-62
2022/05/25 09:47:44;;;;;;;5.10;3.83;;;;;;;;;;5076328;28;20033;-62
2022/05/25 09:50:42;;;;;;;6.43;4.03;;;;;;;;;;5079372;28;20463;-62
2022/05/25 09:53:12;;;;;;;4.60;4.20;;;;;;;;;;4979571;28;20077;-62
2022/05/25 09:55:50;;;;;;;4.82;4.40;;;;;;;;;;5010862;28;20302;-62
2022/05/25 09:58:52;;;;;;;4.43;3.90;;;;;;;;;;5015601;28;20045;-62
2022/05/25 10:01:24;;;;;;;4.20;3.85;;;;;;;;;;5023340;28;20057;-62
2022/05/25 10:03:50;;;;;;;6.35;4.85;;;;;;;;;;5007966;28;20049;-62
2022/05/25 10:06:16;;;;;;;5.10;4.80;;;;;;;;;;5018110;28;20260;-62
2022/05/25 10:08:42;;;;;;;6.78;4.80;;;;;;;;;;5014037;28;20096;-63
2022/05/25 10:11:27;;;;;;;5.10;4.70;;;;;;;;;;5020759;28;20050;-62
2022/05/25 10:14:13;;;;;;;6.03;4.50;;;;;;;;;;5018236;28;20069;-62
2022/05/25 10:16:39;;;;;;;4.45;4.05;;;;;;;;;;5018146;28;20037;-63
2022/05/25 10:19:12;;;;;;;5.15;4.80;;;;;;;;;;5015502;28;20115;-62
2022/05/25 10:21:39;;;;;;;4.75;4.45;;;;;;;;;;4998398;28;20494;-62
2022/05/25 10:24:20;;;;;;;4.47;4.07;;;;;;;;;;5015609;28;20049;-62
2022/05/25 10:26:50;;;;;;;4.40;4.10;;;;;;;;;;5017728;28;20037;-62
2022/05/25 10:38:35;;;;;;;5.07;4.68;;;;;;;;;;4941533;29;20047;-62
2022/05/25 10:41:37;;;;;;;4.45;4.18;;;;;;;;;;4936229;29;20442;-62
2022/05/25 10:43:58;;;;;;;5.78;4.70;;;;;;;;;;4928601;29;20506;-62
2022/05/25 10:46:24;;;;;;;4.85;4.50;;;;;;;;;;4935264;29;20031;-62
2022/05/25 10:49:01;;;;;;;5.05;4.57;;;;;;;;;;4936053;29;20043;-62
2022/05/25 10:51:40;;;;;;;4.80;4.50;;;;;;;;;;4933395;29;20531;-63
2022/05/25 10:54:45;;;;;;;6.00;5.50;;;;;;;;;;4936202;29;20529;-62
2022/05/25 10:57:19;;;;;;;4.90;4.50;;;;;;;;;;4932927;29;20051;-62
2022/05/25 11:00:03;;;;;;;4.43;4.13;;;;;;;;;;4933425;29;20499;-62
2022/05/25 11:02:49;;;;;;;5.18;4.30;;;;;;;;;;4930658;28;20051;-62
2022/05/25 11:05:40;;;;;;;4.10;3.80;;;;;;;;;;5023689;28;20351;-63
2022/05/25 11:08:14;;;;;;;6.32;4.10;;;;;;;;;;5033200;28;20074;-62
2022/05/25 11:10:50;;;;;;;3.83;3.60;;;;;;;;;;5080456;28;20559;-63
2022/05/25 11:13:53;;;;;;;4.13;3.90;;;;;;;;;;5076870;28;20032;-62
2022/05/25 11:16:49;;;;;;;4.75;4.35;;;;;;;;;;5075745;28;20039;-62
2022/05/25 11:20:01;;;;;;;4.38;3.97;;;;;;;;;;5079575;28;20081;-63
2022/05/25 11:22:35;;;;;;;4.00;3.63;;;;;;;;;;5078911;28;20120;-63
2022/05/25 11:25:24;;;;;;;3.65;3.45;;;;;;;;;;5074053;28;20147;-62
2022/05/25 11:28:16;;;;;;;4.40;3.85;;;;;;;;;;5078880;28;20510;-62
2022/05/25 11:31:19;;;;;;;6.22;4.47;;;;;;;;;;5077127;28;20024;-63
2022/05/25 11:34:23;;;;;;;4.20;3.90;;;;;;;;;;5072647;28;20111;-61
2022/05/25 11:37:19;;;;;;;5.05;4.28;;;;;;;;;;5077413;28;20448;-61
2022/05/25 11:40:22;;;;;;;4.75;4.32;;;;;;;;;;5073265;28;20031;-61
2022/05/25 11:43:18;;;;;;;6.53;4.60;;;;;;;;;;5077845;28;20032;-62
2022/05/25 11:46:15;;;;;;;4.35;4.15;;;;;;;;;;5075441;28;20408;-62
2022/05/25 11:48:56;;;;;;;7.25;4.47;;;;;;;;;;5074236;28;20028;-62
2022/05/25 11:51:29;;;;;;;4.50;4.10;;;;;;;;;;5076945;28;20394;-62
2022/05/25 11:54:30;;;;;;;4.68;4.35;;;;;;;;;;5070180;28;20034;-63
2022/05/25 11:57:17;;;;;;;4.75;4.35;;;;;;;;;;5075246;28;20131;-61
2022/05/25 12:00:21;;;;;;;4.38;4.07;;;;;;;;;;5078079;28;20032;-61
2022/05/25 12:03:14;;;;;;;5.95;4.20;;;;;;;;;;5075030;28;20040;-61
2022/05/25 12:06:06;;;;;;;5.28;4.25;;;;;;;;;;5080736;28;20031;-61
2022/05/25 12:09:16;;;;;;;4.85;4.30;;;;;;;;;;5068075;28;20044;-63
2022/05/25 12:12:07;;;;;;;4.85;4.45;;;;;;;;;;5069031;28;20495;-61
2022/05/25 12:14:57;;;;;;;4.70;4.30;;;;;;;;;;5076521;28;20044;-62
2022/05/25 12:17:41;;;;;;;4.70;4.40;;;;;;;;;;5075037;28;20064;-62
2022/05/25 12:20:09;;;;;;;4.50;4.20;;;;;;;;;;5072237;28;20035;-62
2022/05/25 12:22:36;;;;;;;6.45;4.68;;;;;;;;;;5059175;28;20063;-62
2022/05/25 12:25:12;;;;;;;4.47;4.20;;;;;;;;;;5053968;28;20095;-62
2022/05/25 12:27:43;;;;;;;4.90;4.60;;;;;;;;;;5069466;28;20110;-62
2022/05/25 12:30:13;;;;;;;4.72;4.43;;;;;;;;;;5065916;28;20219;-62
2022/05/25 12:32:40;;;;;;;5.30;4.35;;;;;;;;;;5057388;28;20098;-62
2022/05/25 12:35:09;;;;;;;4.60;4.28;;;;;;;;;;5077671;28;20115;-62
2022/05/25 12:37:40;;;;;;;4.70;4.30;;;;;;;;;;5073900;28;20039;-62
2022/05/25 12:40:09;;;;;;;5.22;4.57;;;;;;;;;;5076958;28;20028;-62
2022/05/25 12:42:37;;;;;;;4.60;4.30;;;;;;;;;;5081656;28;20036;-63
2022/05/25 12:50:57;;;;;;;5.53;4.53;;;;;;;;;;5065997;28;20038;-62
2022/05/25 12:53:39;;;;;;;4.57;4.25;;;;;;;;;;5076704;28;20107;-62
2022/05/25 12:56:07;;;;;;;4.65;4.25;;;;;;;;;;5063731;28;20025;-63
2022/05/25 12:58:45;;;;;;;4.18;3.95;;;;;;;;;;5069172;28;20435;-62
2022/05/25 13:01:14;;;;;;;4.63;4.23;;;;;;;;;;5070784;28;20260;-62
2022/05/25 13:03:46;;;;;;;4.38;3.97;;;;;;;;;;5077006;28;20605;-62
2022/05/25 13:06:13;;;;;;;5.28;4.28;;;;;;;;;;5063681;28;20069;-62
2022/05/25 13:08:50;;;;;;;5.15;4.20;;;;;;;;;;5067860;28;20044;-62
2022/05/25 13:11:52;;;;;;;4.20;3.90;;;;;;;;;;5074507;28;20091;-62
2022/05/25 13:14:18;;;;;;;4.88;4.47;;;;;;;;;;4990937;28;20046;-63
2022/05/25 13:16:48;;;;;;;4.28;3.97;;;;;;;;;;4939341;28;1057655;-62
2022/05/25 13:19:33;;;;;;;5.20;4.78;;;;;;;;;;4979706;28;20271;-62
2022/05/25 13:22:05;;;;;;;4.43;4.20;;;;;;;;;;4990312;28;20038;-63
2022/05/25 13:25:16;;;;;;;5.65;4.68;;;;;;;;;;4986225;28;20034;-62
2022/05/25 13:28:08;;;;;;;4.32;3.92;;;;;;;;;;4987694;28;20074;-62
2022/05/25 13:30:47;;;;;;;4.85;4.38;;;;;;;;;;4984726;28;20054;-63
2022/05/25 13:33:36;;;;;;;4.75;4.35;;;;;;;;;;4985627;28;20425;-63
2022/05/25 13:36:04;;;;;;;4.65;4.30;;;;;;;;;;4994645;28;20306;-63
2022/05/25 13:38:36;;;;;;;4.90;4.50;;;;;;;;;;4989494;28;20133;-62
2022/05/25 13:41:08;;;;;;;4.82;4.53;;;;;;;;;;4987498;28;20502;-63
2022/05/25 13:43:42;;;;;;;4.95;4.50;;;;;;;;;;4986118;28;20050;-63
2022/05/25 13:46:13;;;;;;;4.55;4.25;;;;;;;;;;4988514;28;20041;-62
2022/05/25 13:48:50;;;;;;;4.50;4.10;;;;;;;;;;5048923;28;20380;-62
2022/05/25 13:51:19;;;;;;;8.10;4.80;;;;;;;;;;5081007;28;20491;-62
2022/05/25 13:53:46;;;;;;;4.80;4.40;;;;;;;;;;5062611;28;20522;-62
2022/05/25 13:56:18;;;;;;;4.30;3.90;;;;;;;;;;5062946;28;20098;-62
2022/05/25 13:58:46;;;;;;;5.40;4.50;;;;;;;;;;5080896;28;20040;-62
2022/05/25 14:01:18;;;;;;;5.35;4.82;;;;;;;;;;5073976;28;20119;-62
2022/05/25 14:03:50;;;;;;;4.80;4.50;;;;;;;;;;5073169;28;20028;-62
2022/05/25 14:06:16;;;;;;;5.05;4.60;;;;;;;;;;5085058;28;20065;-62
2022/05/25 14:11:40;;;;;;;4.85;4.55;;;;;;;;;;5077075;28;20040;-62
2022/05/25 14:14:29;;;;;;;4.85;4.40;;;;;;;;;;5082710;28;20494;-62
2022/05/25 14:16:58;;;;;;;7.20;4.30;;;;;;;;;;5072343;28;20483;-62
2022/05/25 14:19:29;;;;;;;4.65;4.25;;;;;;;;;;5065947;28;20033;-63
2022/05/25 14:22:01;;;;;;;4.40;4.20;;;;;;;;;;5082569;28;20423;-62
2022/05/25 14:24:30;;;;;;;5.57;3.97;;;;;;;;;;5066239;28;20294;-62
2022/05/25 14:26:59;;;;;;;4.43;4.10;;;;;;;;;;5066038;28;20023;-62
2022/05/25 14:29:27;;;;;;;5.90;4.50;;;;;;;;;;5085467;28;20063;-62
2022/05/25 14:32:11;;;;;;;4.97;4.57;;;;;;;;;;5075755;28;20502;-63
2022/05/25 14:34:39;;;;;;;5.22;4.28;;;;;;;;;;5077321;28;20379;-62
2022/05/25 14:37:05;;;;;;;6.22;3.90;;;;;;;;;;5075924;28;20036;-62
2022/05/25 14:39:34;;;;;;;4.75;4.35;;;;;;;;;;5079423;28;20389;-62
2022/05/25 14:42:08;;;;;;;4.50;4.20;;;;;;;;;;5073276;28;20048;-62
2022/05/25 14:44:55;;;;;;;5.65;4.25;;;;;;;;;;5086078;28;20502;-62
2022/05/25 14:47:29;;;;;;;4.70;4.25;;;;;;;;;;5073148;28;20089;-62
2022/05/25 14:50:17;;;;;;;4.60;4.20;;;;;;;;;;5072041;28;20036;-62
2022/05/25 14:52:47;;;;;;;4.40;4.10;;;;;;;;;;5033239;28;20040;-62
2022/05/25 14:55:19;;;;;;;3.95;3.65;;;;;;;;;;5062775;28;20043;-61
2022/05/25 14:57:44;;;;;;;4.18;3.88;;;;;;;;;;5079623;28;20165;-62
2022/05/25 15:00:13;;;;;;;5.22;4.25;;;;;;;;;;5074068;28;20166;-64
2022/05/25 15:02:40;;;;;;;4.43;4.03;;;;;;;;;;5078203;28;20040;-65
2022/05/25 15:05:44;;;;;;;5.18;4.47;;;;;;;;;;5088017;28;20036;-62
2022/05/25 15:08:24;;;;;;;4.68;4.30;;;;;;;;;;5063536;28;20040;-62
2022/05/25 15:10:50;;;;;;;4.40;4.00;;;;;;;;;;5072670;28;20119;-62
2022/05/25 15:18:58;;;;;;;4.00;3.80;;;;;;;;;;5065297;28;20032;-62
2022/05/25 15:21:27;;;;;;;6.45;4.40;;;;;;;;;;5081662;28;20040;-62
2022/05/25 15:24:00;;;;;;;4.32;4.03;;;;;;;;;;5075837;28;20044;-62
2022/05/25 15:26:35;;;;;;;4.60;4.30;;;;;;;;;;5058219;28;20044;-63
2022/05/25 15:29:26;;;;;;;4.22;3.90;;;;;;;;;;5075054;28;20036;-62
2022/05/25 15:31:55;;;;;;;4.72;4.38;;;;;;;;;;5080942;28;20115;-63
2022/05/25 15:34:22;;;;;;;6.20;5.68;;;;;;;;;;5070587;28;20059;-62
2022/05/25 15:36:49;;;;;;;9.27;4.20;;;;;;;;;;5079486;28;20055;-63
2022/05/25 15:39:16;;;;;;;4.30;4.05;;;;;;;;;;5071023;28;20033;-63
2022/05/25 15:41:42;;;;;;;4.63;4.32;;;;;;;;;;5065978;28;20110;-62
2022/05/25 15:44:08;;;;;;;4.30;4.00;;;;;;;;;;5072033;28;20439;-62
2022/05/25 15:46:38;;;;;;;4.50;4.07;;;;;;;;;;5077768;28;20042;-62
2022/05/25 15:49:11;;;;;;;4.63;4.40;;;;;;;;;;5072952;28;20029;-62
2022/05/25 15:51:43;;;;;;;4.50;4.20;;;;;;;;;;5060151;28;20120;-63
2022/05/25 15:54:09;;;;;;;4.47;4.13;;;;;;;;;;5074817;28;20039;-62